createdAt,value
2018-08-20T20:29:52.048Z,22.30
2018-08-20T20:30:25.663Z,22.50
2018-08-20T20:30:59.608Z,22.30
2018-08-20T20:31:33.621Z,22.30
2018-08-20T20:32:07.741Z,22.30
2018-08-20T20:32:41.585Z,22.20
2018-08-20T20:33:15.529Z,22.20
2018-08-20T20:33:49.543Z,22.20
2018-08-20T20:34:23.406Z,22.30
2018-08-20T20:34:58.002Z,22.30
2018-08-20T20:35:31.988Z,22.20
2018-08-20T20:36:10.124Z,22.20
2018-08-20T20:36:44.083Z,22.20
2018-08-20T20:37:18.046Z,22.20
2018-08-20T20:37:51.896Z,22.20
2018-08-20T20:38:26.359Z,22.20
2018-08-20T20:39:00.622Z,22.20
2018-08-20T20:39:34.477Z,22.20
2018-08-20T20:40:09.037Z,22.20
2018-08-20T20:40:43.010Z,22.20
2018-08-20T20:41:17.047Z,22.20
2018-08-20T20:41:51.503Z,22.20
2018-08-20T20:42:26.222Z,22.20
2018-08-20T20:43:00.957Z,22.30
2018-08-20T20:43:36.797Z,22.30
2018-08-20T20:44:13.271Z,22.20
2018-08-20T20:44:47.281Z,22.20
2018-08-20T20:45:22.844Z,22.20
2018-08-20T20:45:56.873Z,22.20
2018-08-20T20:46:30.665Z,22.20
2018-08-20T20:47:04.773Z,22.20
2018-08-20T20:47:38.726Z,22.20
2018-08-20T20:48:12.388Z,22.20
2018-08-20T20:48:46.128Z,22.20
2018-08-20T20:49:19.908Z,22.30
2018-08-20T20:49:53.693Z,22.30
2018-08-20T20:50:28.331Z,22.20
2018-08-20T20:51:02.108Z,22.20
2018-08-20T20:51:35.955Z,22.20
2018-08-20T20:52:09.589Z,22.20
2018-08-20T20:52:43.454Z,22.20
2018-08-20T20:53:17.191Z,22.20
2018-08-20T20:53:50.877Z,22.20
2018-08-20T20:54:24.667Z,22.20
2018-08-20T20:54:58.442Z,22.10
2018-08-20T20:55:32.217Z,22.10
2018-08-20T20:56:06.027Z,22.20
2018-08-20T20:56:39.975Z,22.10
2018-08-20T20:57:13.873Z,22.10
2018-08-20T20:57:47.624Z,22.20
2018-08-20T20:58:36.976Z,22.10
2018-08-20T20:59:10.713Z,22.10
2018-08-20T20:59:44.441Z,22.10
2018-08-20T21:00:18.428Z,22.10
2018-08-20T21:00:52.199Z,22.10
2018-08-20T21:01:26.338Z,22.10
2018-08-20T21:02:00.185Z,22.10
2018-08-20T21:02:34.174Z,22.10
2018-08-20T21:03:10.789Z,22.00
2018-08-20T21:03:44.598Z,22.10
2018-08-20T21:04:18.298Z,22.10
2018-08-20T21:04:52.277Z,22.10
2018-08-20T21:05:26.657Z,22.10
2018-08-20T21:06:00.690Z,22.10
2018-08-20T21:06:38.599Z,22.10
2018-08-20T21:07:14.486Z,22.10
2018-08-20T21:07:49.209Z,22.10
2018-08-20T21:08:22.908Z,22.10
2018-08-20T21:08:58.012Z,22.10
2018-08-20T21:09:36.931Z,22.10
2018-08-20T21:10:10.737Z,22.10
2018-08-20T21:10:50.387Z,22.10
2018-08-20T21:11:24.091Z,22.00
2018-08-20T21:11:58.253Z,22.00
2018-08-20T21:12:32.517Z,22.00
2018-08-20T21:13:06.367Z,22.00
2018-08-20T21:13:41.138Z,22.00
2018-08-20T21:14:14.895Z,22.00
2018-08-20T21:14:48.553Z,22.00
2018-08-20T21:15:22.123Z,22.00
2018-08-20T21:16:03.075Z,22.00
2018-08-20T21:16:36.820Z,22.00
2018-08-20T21:17:10.508Z,22.00
2018-08-20T21:17:44.227Z,22.00
2018-08-20T21:18:17.842Z,22.00
2018-08-20T21:18:53.305Z,21.90
2018-08-20T21:19:27.805Z,21.90
2018-08-20T21:20:01.815Z,21.90
2018-08-20T21:20:35.462Z,21.90
2018-08-20T21:21:10.725Z,21.90
2018-08-20T21:21:54.381Z,21.90
2018-08-20T21:22:33.964Z,21.90
2018-08-20T21:23:07.647Z,21.90
2018-08-20T21:23:41.934Z,21.90
2018-08-20T21:24:15.562Z,21.90
2018-08-20T21:24:49.368Z,21.90
2018-08-20T21:25:23.062Z,21.90
2018-08-20T21:25:57.766Z,21.90
2018-08-20T21:26:31.474Z,21.90
2018-08-20T21:27:13.637Z,21.90
2018-08-20T21:27:47.219Z,21.90
2018-08-20T21:28:21.755Z,21.90
2018-08-20T21:28:56.599Z,21.80
2018-08-20T21:29:30.693Z,21.80
2018-08-20T21:30:05.544Z,21.80
2018-08-20T21:30:43.993Z,21.80
2018-08-20T21:31:18.768Z,21.80
2018-08-20T21:31:52.698Z,21.70
2018-08-20T21:32:27.308Z,21.70
2018-08-20T21:33:01.033Z,21.70
2018-08-20T21:33:34.725Z,21.60
2018-08-20T21:34:08.325Z,21.60
2018-08-20T21:34:42.535Z,21.60
2018-08-20T21:35:18.315Z,21.50
2018-08-20T21:35:52.055Z,21.50
2018-08-20T21:36:25.706Z,21.50
2018-08-20T21:36:59.417Z,21.50
2018-08-20T21:37:35.202Z,21.50
2018-08-20T21:38:08.911Z,21.40
2018-08-20T21:38:42.988Z,21.40
2018-08-20T21:39:16.668Z,21.40
2018-08-20T21:39:50.354Z,21.40
2018-08-20T21:40:28.490Z,21.40
2018-08-20T21:41:02.244Z,21.40
2018-08-20T21:41:35.863Z,21.40
2018-08-20T21:42:09.581Z,21.40
2018-08-20T21:42:43.252Z,21.30
2018-08-20T21:43:16.944Z,21.40
2018-08-20T21:43:50.706Z,21.30
2018-08-20T21:44:24.383Z,21.30
2018-08-20T21:44:59.184Z,21.30
2018-08-20T21:45:33.243Z,21.30
2018-08-20T21:46:07.220Z,21.30
2018-08-20T21:46:40.938Z,21.20
2018-08-20T21:47:24.986Z,21.30
2018-08-20T21:47:59.093Z,21.20
2018-08-20T21:48:32.847Z,21.30
2018-08-20T21:49:06.984Z,21.20
2018-08-20T21:49:40.668Z,21.20
2018-08-20T21:50:14.341Z,21.20
2018-08-20T21:50:48.112Z,21.20
2018-08-20T21:51:23.694Z,21.10
2018-08-20T21:51:58.545Z,21.10
2018-08-20T21:52:32.197Z,21.00
2018-08-20T21:53:06.002Z,21.00
2018-08-20T21:53:39.645Z,21.10
2018-08-20T21:54:13.455Z,21.10
2018-08-20T21:54:47.173Z,21.00
2018-08-20T21:55:20.835Z,21.00
2018-08-20T21:55:54.513Z,21.10
2018-08-20T21:57:02.492Z,21.10
2018-08-20T21:57:37.865Z,21.10
2018-08-20T21:58:11.703Z,21.10
2018-08-20T21:58:45.418Z,21.00
2018-08-20T21:59:19.194Z,21.00
2018-08-20T22:00:07.082Z,21.10
2018-08-20T22:00:40.932Z,21.00
2018-08-20T22:01:16.027Z,21.00
2018-08-20T22:01:49.759Z,21.00
2018-08-20T22:02:26.578Z,21.00
2018-08-20T22:03:01.091Z,21.00
2018-08-20T22:03:34.785Z,21.00
2018-08-20T22:04:14.031Z,21.00
2018-08-20T22:04:47.714Z,21.00
2018-08-20T22:05:21.368Z,21.00
2018-08-20T22:05:55.056Z,21.00
2018-08-20T22:06:29.294Z,21.00
2018-08-20T22:07:03.027Z,21.00
2018-08-20T22:07:37.290Z,21.00
2018-08-20T22:08:10.940Z,21.00
2018-08-20T22:08:44.653Z,20.90
2018-08-20T22:09:18.405Z,20.90
2018-08-20T22:09:52.369Z,20.90
2018-08-20T22:10:28.240Z,20.90
2018-08-20T22:11:01.968Z,21.00
2018-08-20T22:11:35.612Z,21.00
2018-08-20T22:12:09.344Z,20.90
2018-08-20T22:12:43.411Z,20.90
2018-08-20T22:13:17.112Z,20.90
2018-08-20T22:13:50.776Z,21.00
2018-08-20T22:14:24.610Z,21.00
2018-08-20T22:14:58.383Z,20.90
2018-08-20T22:15:32.158Z,20.90
2018-08-20T22:16:22.856Z,20.80
2018-08-20T22:16:58.255Z,20.80
2018-08-20T22:17:33.492Z,20.80
2018-08-20T22:18:09.693Z,20.90
2018-08-20T22:18:47.353Z,20.80
2018-08-20T22:19:21.063Z,20.80
2018-08-20T22:19:54.794Z,20.80
2018-08-20T22:20:29.438Z,20.80
2018-08-20T22:21:03.145Z,20.80
2018-08-20T22:21:36.791Z,20.80
2018-08-20T22:22:10.548Z,20.80
2018-08-20T22:22:44.379Z,20.80
2018-08-20T22:23:25.274Z,20.80
2018-08-20T22:23:51.990Z,20.70
2018-08-20T22:24:25.664Z,20.70
2018-08-20T22:25:01.896Z,20.70
2018-08-20T22:25:35.686Z,20.70
2018-08-20T22:26:10.652Z,20.80
2018-08-20T22:26:50.703Z,20.80
2018-08-20T22:27:24.735Z,20.80
2018-08-20T22:27:58.786Z,20.70
2018-08-20T22:28:32.431Z,20.80
2018-08-20T22:29:06.234Z,20.80
2018-08-20T22:29:45.229Z,20.80
2018-08-20T22:30:19.015Z,20.70
2018-08-20T22:30:56.811Z,20.80
2018-08-20T22:31:30.519Z,20.70
2018-08-20T22:32:07.510Z,20.80
2018-08-20T22:32:41.217Z,20.80
2018-08-20T22:33:14.994Z,20.70
2018-08-20T22:33:55.251Z,20.80
2018-08-20T22:34:29.466Z,20.70
2018-08-20T22:35:08.726Z,20.80
2018-08-20T22:35:42.394Z,20.80
2018-08-20T22:36:16.074Z,20.70
2018-08-20T22:36:54.119Z,20.80
2018-08-20T22:37:28.075Z,20.70
2018-08-20T22:38:01.760Z,20.70
2018-08-20T22:38:41.453Z,20.70
2018-08-20T22:39:15.200Z,20.70
2018-08-20T22:39:54.283Z,20.70
2018-08-20T22:40:28.886Z,20.70
2018-08-20T22:41:02.501Z,20.70
2018-08-20T22:41:36.249Z,20.70
2018-08-20T22:42:09.929Z,20.70
2018-08-20T22:42:51.150Z,20.70
2018-08-20T22:43:24.916Z,20.70
2018-08-20T22:43:59.211Z,20.70
2018-08-20T22:44:32.957Z,20.70
2018-08-20T22:45:06.629Z,20.70
2018-08-20T22:45:40.316Z,20.70
2018-08-20T22:46:13.963Z,20.70
2018-08-20T22:46:47.593Z,20.70
2018-08-20T22:47:21.377Z,20.70
2018-08-20T22:47:55.137Z,20.70
2018-08-20T22:48:29.183Z,20.70
2018-08-20T22:49:02.787Z,20.70
2018-08-20T22:49:36.465Z,20.70
2018-08-20T22:50:10.158Z,20.70
2018-08-20T22:50:44.004Z,20.70
2018-08-20T22:51:18.365Z,20.70
2018-08-20T22:51:51.988Z,20.60
2018-08-20T22:52:26.890Z,20.60
2018-08-20T22:53:00.626Z,20.70
2018-08-20T22:53:34.191Z,20.60
2018-08-20T22:54:07.823Z,20.60
2018-08-20T22:54:41.440Z,20.60
2018-08-20T22:55:16.380Z,20.60
2018-08-20T22:56:01.010Z,20.60
2018-08-20T22:56:35.536Z,20.60
2018-08-20T22:57:09.630Z,20.60
2018-08-20T22:57:50.647Z,20.50
2018-08-20T22:58:24.607Z,20.50
2018-08-20T22:59:06.850Z,20.60
2018-08-20T22:59:40.520Z,20.60
2018-08-20T23:00:18.700Z,20.60
2018-08-20T23:00:54.206Z,20.50
2018-08-20T23:01:28.738Z,20.50
2018-08-20T23:02:09.313Z,20.50
2018-08-20T23:02:42.933Z,20.50
2018-08-20T23:03:18.438Z,20.40
2018-08-20T23:03:52.191Z,20.40
2018-08-20T23:04:25.885Z,20.50
2018-08-20T23:05:02.571Z,20.40
2018-08-20T23:05:36.243Z,20.40
2018-08-20T23:06:10.021Z,20.40
2018-08-20T23:06:43.700Z,20.40
2018-08-20T23:07:17.723Z,20.40
2018-08-20T23:07:51.745Z,20.40
2018-08-20T23:08:25.942Z,20.40
2018-08-20T23:09:03.378Z,20.40
2018-08-20T23:09:36.973Z,20.40
2018-08-20T23:10:11.704Z,20.40
2018-08-20T23:10:45.387Z,20.30
2018-08-20T23:11:34.234Z,20.30
2018-08-20T23:12:08.310Z,20.30
2018-08-20T23:12:42.746Z,20.30
2018-08-20T23:13:16.397Z,20.30
2018-08-20T23:13:50.088Z,20.30
2018-08-20T23:14:23.875Z,20.20
2018-08-20T23:14:57.569Z,20.20
2018-08-20T23:15:31.388Z,20.20
2018-08-20T23:16:05.089Z,20.20
2018-08-20T23:16:39.171Z,20.30
2018-08-20T23:17:13.827Z,20.20
2018-08-20T23:17:47.562Z,20.20
2018-08-20T23:18:21.212Z,20.20
2018-08-20T23:18:54.849Z,20.20
2018-08-20T23:19:30.460Z,20.20
2018-08-20T23:20:05.540Z,20.20
2018-08-20T23:20:39.198Z,20.20
2018-08-20T23:21:13.627Z,20.20
2018-08-20T23:21:48.301Z,20.20
2018-08-20T23:22:21.944Z,20.20
2018-08-20T23:22:55.627Z,20.20
2018-08-20T23:23:35.239Z,20.20
2018-08-20T23:24:09.349Z,20.10
2018-08-20T23:24:50.723Z,20.20
2018-08-20T23:25:24.335Z,20.20
2018-08-20T23:26:03.442Z,20.20
2018-08-20T23:26:37.137Z,20.20
2018-08-20T23:27:11.280Z,20.20
2018-08-20T23:27:45.075Z,20.20
2018-08-20T23:28:18.730Z,20.20
2018-08-20T23:28:52.417Z,20.20
2018-08-20T23:29:26.176Z,20.20
2018-08-20T23:29:59.869Z,20.20
2018-08-20T23:30:33.566Z,20.20
2018-08-20T23:31:07.266Z,20.20
2018-08-20T23:31:42.083Z,20.20
2018-08-20T23:32:15.767Z,20.20
2018-08-20T23:32:49.611Z,20.10
2018-08-20T23:33:23.325Z,20.10
2018-08-20T23:33:57.082Z,20.10
2018-08-20T23:34:30.706Z,20.10
2018-08-20T23:35:04.465Z,20.10
2018-08-20T23:35:38.052Z,20.20
2018-08-20T23:36:12.213Z,20.10
2018-08-20T23:36:45.939Z,20.10
2018-08-20T23:37:19.592Z,20.10
2018-08-20T23:37:53.224Z,20.10
2018-08-20T23:38:27.342Z,20.10
2018-08-20T23:39:00.981Z,20.10
2018-08-20T23:39:34.597Z,20.10
2018-08-20T23:40:08.249Z,20.10
2018-08-20T23:40:42.663Z,20.10
2018-08-20T23:41:16.343Z,20.10
2018-08-20T23:41:50.028Z,20.10
2018-08-20T23:42:23.629Z,20.10
2018-08-20T23:42:57.265Z,20.10
2018-08-20T23:43:31.232Z,20.10
2018-08-20T23:44:05.081Z,20.10
2018-08-20T23:44:38.739Z,20.10
2018-08-20T23:45:12.623Z,20.10
2018-08-20T23:45:46.325Z,20.00
2018-08-20T23:46:32.193Z,20.00
2018-08-20T23:47:05.847Z,20.00
2018-08-20T23:47:39.533Z,20.00
2018-08-20T23:48:13.992Z,20.00
2018-08-20T23:48:47.652Z,20.00
2018-08-20T23:49:21.304Z,20.00
2018-08-20T23:49:54.946Z,20.00
2018-08-20T23:50:28.599Z,20.00
2018-08-20T23:51:06.271Z,20.00
2018-08-20T23:51:40.016Z,20.00
2018-08-20T23:52:14.350Z,20.00
2018-08-20T23:52:48.021Z,19.90
2018-08-20T23:53:22.015Z,19.90
2018-08-20T23:53:55.654Z,19.90
2018-08-20T23:54:29.380Z,19.90
2018-08-20T23:55:03.103Z,19.90
2018-08-20T23:55:37.288Z,20.60
2018-08-20T23:56:11.647Z,19.80
2018-08-20T23:56:45.406Z,19.80
2018-08-20T23:57:19.143Z,19.80
2018-08-20T23:57:52.803Z,19.80
2018-08-20T23:58:26.478Z,19.80
2018-08-20T23:59:00.374Z,19.80
2018-08-20T23:59:34.091Z,19.70
